Time;durP1;ratioP1;P1;durP2;ratioP2;P2;SDS_P1;SDS_P2;PMS_P1;PMS_P2;Temp;Humidity;BMP_temperature;BMP_pressure;BME280_temperature;BME280_humidity;BME280_pressure;Samples;Min_cycle;Max_cycle;Signal;HPM_P1;HPM_P2
2023/05/16 00:00:37;;;;;;;;;;;;;;;-142.75;100.00;77905.13;5006762;28;19913;-65
2023/05/16 00:03:03;;;;;;;;;;;;;;;-142.75;100.00;77907.09;5007348;28;20298;-66
2023/05/16 00:05:28;;;;;;;;;;;;;;;-142.75;100.00;77907.09;5006843;28;19914;-66
2023/05/16 00:07:54;;;;;;;;;;;;;;;-142.75;100.00;77891.34;5006593;28;20393;-63
2023/05/16 00:10:19;;;;;;;;;;;;;;;-142.75;100.00;77901.19;5020717;28;19913;-64
2023/05/16 00:12:44;;;;;;;;;;;;;;;-142.75;100.00;77893.31;5006484;28;19983;-66
2023/05/16 00:15:12;;;;;;;;;;;;;;;-142.75;100.00;77918.94;5006330;28;20383;-66
2023/05/16 00:17:39;;;;;;;;;;;;;;;-142.75;100.00;77915.00;5006439;28;19917;-65
2023/05/16 00:20:06;;;;;;;;;;;;;;;-142.75;100.00;77915.00;5006534;28;20007;-66
2023/05/16 00:22:32;;;;;;;;;;;;;;;-142.75;100.00;77920.91;5006466;28;19948;-66
2023/05/16 00:24:57;;;;;;;;;;;;;;;-142.75;100.00;77920.91;5005877;28;19913;-65
2023/05/16 00:27:22;;;;;;;;;;;;;;;-142.75;100.00;77928.78;5020461;28;19928;-66
2023/05/16 00:29:47;;;;;;;;;;;;;;;-142.75;100.00;77926.81;5006386;28;19940;-67
2023/05/16 00:32:12;;;;;;;;;;;;;;;-142.75;100.00;77913.03;5006753;28;19971;-65
2023/05/16 00:34:38;;;;;;;;;;;;;;;-142.75;100.00;77928.78;5003601;28;20002;-66
2023/05/16 00:37:04;;;;;;;;;;;;;;;-142.75;100.00;77932.72;5006054;28;20448;-66
2023/05/16 00:39:29;;;;;;;;;;;;;;;-142.75;100.00;77932.72;5006379;28;19913;-67
2023/05/16 00:41:56;;;;;;;;;;;;;;;-142.75;100.00;77946.50;5005973;28;21352;-65
2023/05/16 00:44:21;;;;;;;;;;;;;;;-142.75;100.00;77956.34;5006216;28;19968;-66
2023/05/16 00:46:47;;;;;;;;;;;;;;;-142.75;100.00;77952.41;5005981;28;19929;-66
2023/05/16 00:49:12;;;;;;;;;;;;;;;-142.75;100.00;77976.03;5006128;28;19929;-66
2023/05/16 00:51:38;;;;;;;;;;;;;;;-142.75;100.00;77956.34;5005925;28;19913;-66
2023/05/16 00:54:03;;;;;;;;;;;;;;;-142.75;100.00;77942.56;5000919;28;19932;-67
2023/05/16 00:56:29;;;;;;;;;;;;;;;-142.75;100.00;77948.47;5005448;28;20007;-66
2023/05/16 00:58:54;;;;;;;;;;;;;;;-142.75;100.00;77956.34;5005235;28;19917;-64
2023/05/16 01:01:22;;;;;;;;;;;;;;;-142.75;100.00;77948.47;5006344;28;19967;-66
2023/05/16 01:03:48;;;;;;;;;;;;;;;-142.75;100.00;77958.31;5003871;28;19944;-66
2023/05/16 01:06:13;;;;;;;;;;;;;;;-142.75;100.00;77960.28;5005342;28;19975;-66
2023/05/16 01:08:39;;;;;;;;;;;;;;;-142.75;100.00;77960.28;5005706;28;19914;-67
2023/05/16 01:11:20;;;;;;;;;;;;;;;-142.75;100.00;77970.13;5005808;28;19913;-66
2023/05/16 01:13:55;;;;;;;;;;;;;;;-142.75;100.00;77972.09;5005399;28;19941;-67
2023/05/16 01:16:35;;;;;;;;;;;;;;;-142.75;100.00;77970.13;5004436;28;19917;-65
2023/05/16 01:19:15;;;;;;;;;;;;;;;-142.75;100.00;77962.25;5005217;28;20005;-66
2023/05/16 01:21:40;;;;;;;;;;;;;;;-142.75;100.00;77950.44;5005431;28;20362;-66
2023/05/16 01:24:13;;;;;;;;;;;;;;;-142.75;100.00;77960.28;5005427;28;19969;-66
2023/05/16 01:26:40;;;;;;;;;;;;;;;-142.75;100.00;77956.34;5005500;28;19920;-67
2023/05/16 01:29:06;;;;;;;;;;;;;;;-142.75;100.00;77960.28;5005685;28;19959;-65
2023/05/16 01:31:31;;;;;;;;;;;;;;;-142.75;100.00;77972.09;5006133;28;19913;-65
2023/05/16 01:33:56;;;;;;;;;;;;;;;-142.75;100.00;77979.97;5005365;28;20400;-65
2023/05/16 01:36:47;;;;;;;;;;;;;;;-142.75;100.00;77968.16;5005296;28;20020;-66
2023/05/16 01:39:31;;;;;;;;;;;;;;;-142.75;100.00;77964.22;5009394;28;19913;-65
2023/05/16 01:42:04;;;;;;;;;;;;;;;-142.75;100.00;77964.22;5009427;28;19917;-64
2023/05/16 01:44:44;;;;;;;;;;;;;;;-142.75;100.00;77974.06;5004689;28;19913;-65
2023/05/16 01:47:13;;;;;;;;;;;;;;;-142.75;100.00;77983.91;5009171;28;19921;-65
2023/05/16 01:49:48;;;;;;;;;;;;;;;-142.75;100.00;77979.97;5009490;28;20064;-66
2023/05/16 01:52:18;;;;;;;;;;;;;;;-142.75;100.00;77976.03;5008521;28;19921;-66
2023/05/16 01:54:44;;;;;;;;;;;;;;;-142.75;100.00;77970.13;5008286;28;20007;-66
2023/05/16 01:57:11;;;;;;;;;;;;;;;-142.75;100.00;77962.25;5008844;28;20008;-65
2023/05/16 01:59:37;;;;;;;;;;;;;;;-142.75;100.00;77960.28;5007903;28;19920;-66
2023/05/16 02:02:02;;;;;;;;;;;;;;;-142.75;100.00;77956.34;5006294;28;19913;-66
2023/05/16 02:04:28;;;;;;;;;;;;;;;-142.75;100.00;77954.38;5008985;28;20826;-65
2023/05/16 02:06:53;;;;;;;;;;;;;;;-142.75;100.00;77956.34;5008873;28;19952;-66
2023/05/16 02:09:19;;;;;;;;;;;;;;;-142.75;100.00;77960.28;5022747;28;19913;-64
2023/05/16 02:11:45;;;;;;;;;;;;;;;-142.75;100.00;77964.22;5008586;28;19913;-66
2023/05/16 02:14:11;;;;;;;;;;;;;;;-142.75;100.00;77974.06;5008546;28;19921;-65
2023/05/16 02:16:37;;;;;;;;;;;;;;;-142.75;100.00;77972.09;5008620;28;19963;-66
2023/05/16 02:19:02;;;;;;;;;;;;;;;-142.75;100.00;77991.78;5009014;28;19948;-66
2023/05/16 02:21:27;;;;;;;;;;;;;;;-142.75;100.00;77976.03;5008846;28;19991;-66
2023/05/16 02:23:53;;;;;;;;;;;;;;;-142.75;100.00;77991.78;5008600;28;20466;-65
2023/05/16 02:26:18;;;;;;;;;;;;;;;-142.75;100.00;77991.78;5022377;28;19917;-67
2023/05/16 02:28:43;;;;;;;;;;;;;;;-142.75;100.00;78001.63;5008832;28;19913;-66
2023/05/16 02:31:09;;;;;;;;;;;;;;;-142.75;100.00;77999.66;5008473;28;19914;-66
2023/05/16 02:33:34;;;;;;;;;;;;;;;-142.75;100.00;78003.59;5009101;28;19920;-66
2023/05/16 02:36:00;;;;;;;;;;;;;;;-142.75;100.00;78003.59;5008067;28;19995;-65
2023/05/16 02:38:25;;;;;;;;;;;;;;;-142.75;100.00;78009.50;5005183;28;19921;-65
2023/05/16 02:40:50;;;;;;;;;;;;;;;-142.75;100.00;78015.41;5008437;28;19922;-67
2023/05/16 02:43:15;;;;;;;;;;;;;;;-142.75;100.00;78042.97;5007913;28;19953;-66
2023/05/16 02:45:41;;;;;;;;;;;;;;;-142.75;100.00;78033.13;5008234;28;19913;-66
2023/05/16 02:48:06;;;;;;;;;;;;;;;-142.75;100.00;78029.19;5007842;28;20441;-66
2023/05/16 02:50:31;;;;;;;;;;;;;;;-142.75;100.00;78035.09;5008344;28;19913;-66
2023/05/16 02:52:58;;;;;;;;;;;;;;;-142.75;100.00;78031.16;5007885;28;19913;-65
2023/05/16 02:55:24;;;;;;;;;;;;;;;-142.75;100.00;78027.22;5008222;28;20016;-63
2023/05/16 02:57:49;;;;;;;;;;;;;;;-142.75;100.00;78029.19;5004170;28;20003;-66
2023/05/16 03:00:15;;;;;;;;;;;;;;;-142.75;100.00;78021.31;5007840;28;20195;-65
2023/05/16 03:02:40;;;;;;;;;;;;;;;-142.75;100.00;78019.34;5008833;28;19940;-64
2023/05/16 03:05:05;;;;;;;;;;;;;;;-142.75;100.00;78031.16;5021336;28;19913;-66
2023/05/16 03:07:31;;;;;;;;;;;;;;;-142.75;100.00;78031.16;5007813;28;19963;-67
2023/05/16 03:09:56;;;;;;;;;;;;;;;-142.75;100.00;78033.13;5007553;28;19913;-65
2023/05/16 03:12:21;;;;;;;;;;;;;;;-142.75;100.00;78025.25;5007887;28;19955;-66
2023/05/16 03:14:46;;;;;;;;;;;;;;;-142.75;100.00;78023.28;5007837;28;19913;-65
2023/05/16 03:17:11;;;;;;;;;;;;;;;-142.75;100.00;78019.34;5007178;28;20015;-65
2023/05/16 03:19:37;;;;;;;;;;;;;;;-142.75;100.00;78019.34;5007575;28;19920;-64
2023/05/16 03:22:02;;;;;;;;;;;;;;;-142.75;100.00;78023.28;5007400;28;19933;-66
2023/05/16 03:24:28;;;;;;;;;;;;;;;-142.75;100.00;78023.28;5007324;28;19944;-66
2023/05/16 03:26:53;;;;;;;;;;;;;;;-142.75;100.00;78025.25;5004664;28;19971;-65
2023/05/16 03:29:18;;;;;;;;;;;;;;;-142.75;100.00;78039.03;5007683;28;19913;-65
2023/05/16 03:31:43;;;;;;;;;;;;;;;-142.75;100.00;78046.91;5007942;28;20359;-66
2023/05/16 03:34:09;;;;;;;;;;;;;;;-142.75;100.00;78046.91;5020456;28;19914;-66
2023/05/16 03:36:34;;;;;;;;;;;;;;;-142.75;100.00;78042.97;5007182;28;20401;-66
2023/05/16 03:39:00;;;;;;;;;;;;;;;-142.75;100.00;78046.91;5007155;28;19913;-66
2023/05/16 03:41:25;;;;;;;;;;;;;;;-142.75;100.00;78046.91;5007366;28;20401;-65
2023/05/16 03:43:50;;;;;;;;;;;;;;;-142.75;100.00;78039.03;5007571;28;19914;-66
2023/05/16 03:46:15;;;;;;;;;;;;;;;-142.75;100.00;78025.25;5006878;28;20048;-66
2023/05/16 03:48:40;;;;;;;;;;;;;;;-142.75;100.00;78017.38;5006997;28;19913;-64
2023/05/16 03:51:06;;;;;;;;;;;;;;;-142.75;100.00;78005.56;5006831;28;19920;-66
2023/05/16 03:53:31;;;;;;;;;;;;;;;-142.75;100.00;78007.53;5020708;28;19913;-66
2023/05/16 03:55:56;;;;;;;;;;;;;;;-142.75;100.00;78011.47;5006548;28;19918;-65
2023/05/16 03:58:22;;;;;;;;;;;;;;;-142.75;100.00;78025.25;5007615;28;19924;-66
2023/05/16 04:00:47;;;;;;;;;;;;;;;-142.75;100.00;78015.41;5006408;28;20004;-66
2023/05/16 04:03:12;;;;;;;;;;;;;;;-142.75;100.00;78023.28;5007534;28;19917;-66
2023/05/16 04:05:38;;;;;;;;;;;;;;;-142.75;100.00;78019.34;5006812;28;19913;-64
2023/05/16 04:08:03;;;;;;;;;;;;;;;-142.75;100.00;78025.25;5003699;28;19996;-65
2023/05/16 04:10:28;;;;;;;;;;;;;;;-142.75;100.00;78015.41;5003007;28;20369;-66
2023/05/16 04:12:53;;;;;;;;;;;;;;;-142.75;100.00;78031.16;5004084;28;19917;-65
2023/05/16 04:15:19;;;;;;;;;;;;;;;-142.75;100.00;78021.31;5006346;28;19921;-65
2023/05/16 04:17:45;;;;;;;;;;;;;;;-142.75;100.00;78023.28;5006379;28;19917;-65
2023/05/16 04:20:10;;;;;;;;;;;;;;;-142.75;100.00;78015.41;5006241;28;19955;-67
2023/05/16 04:22:35;;;;;;;;;;;;;;;-142.75;100.00;78025.25;5006348;28;20012;-64
2023/05/16 04:25:00;;;;;;;;;;;;;;;-142.75;100.00;78017.38;5005982;28;19948;-66
2023/05/16 04:27:26;;;;;;;;;;;;;;;-142.75;100.00;78003.59;5006014;28;19920;-64
2023/05/16 04:29:51;;;;;;;;;;;;;;;-142.75;100.00;78003.59;5006503;28;19913;-66
2023/05/16 04:32:17;;;;;;;;;;;;;;;-142.75;100.00;78011.47;5004670;28;20622;-66
2023/05/16 04:34:43;;;;;;;;;;;;;;;-142.75;100.00;78015.41;5006114;28;19920;-66
2023/05/16 04:37:08;;;;;;;;;;;;;;;-142.75;100.00;78001.63;5005902;28;19964;-66
2023/05/16 04:39:34;;;;;;;;;;;;;;;-142.75;100.00;77997.69;5006214;28;19956;-67
2023/05/16 04:42:00;;;;;;;;;;;;;;;-142.75;100.00;77997.69;5006008;28;19974;-66
2023/05/16 04:44:25;;;;;;;;;;;;;;;-142.75;100.00;77981.94;5006113;28;20392;-64
2023/05/16 04:46:52;;;;;;;;;;;;;;;-142.75;100.00;77979.97;5006025;28;19913;-66
2023/05/16 04:49:17;;;;;;;;;;;;;;;-142.75;100.00;77976.03;5005981;28;19913;-66
2023/05/16 04:51:42;;;;;;;;;;;;;;;-142.75;100.00;77972.09;5006031;28;20079;-66
2023/05/16 04:54:08;;;;;;;;;;;;;;;-142.75;100.00;77952.41;5004164;28;20024;-66
2023/05/16 04:56:33;;;;;;;;;;;;;;;-142.75;100.00;77936.66;5004558;28;19921;-66
2023/05/16 04:58:58;;;;;;;;;;;;;;;-142.75;100.00;77918.94;5016228;28;19913;-66
2023/05/16 05:01:23;;;;;;;;;;;;;;;-142.75;100.00;77922.88;4999964;28;19921;-65
2023/05/16 05:03:48;;;;;;;;;;;;;;;-142.75;100.00;77903.16;4999324;28;20019;-66
2023/05/16 05:06:14;;;;;;;;;;;;;;;-142.75;100.00;77889.38;5005628;28;19995;-67
2023/05/16 05:08:40;;;;;;;;;;;;;;;-142.75;100.00;77865.75;5005802;28;19928;-66
2023/05/16 05:11:05;;;;;;;;;;;;;;;-142.75;100.00;77838.19;5005699;28;20007;-66
2023/05/16 05:13:31;;;;;;;;;;;;;;;-142.75;100.00;77822.44;5005642;28;19960;-66
2023/05/16 05:15:56;;;;;;;;;;;;;;;-142.75;100.00;77814.56;5019247;28;20012;-63
2023/05/16 05:18:21;;;;;;;;;;;;;;;-142.75;100.00;77818.50;5020134;28;20518;-69
2023/05/16 05:20:47;;;;;;;;;;;;;;;-142.75;100.00;77798.81;5005660;28;19919;-66
2023/05/16 05:23:12;;;;;;;;;;;;;;;-142.75;100.00;77775.19;5005185;28;19913;-66
2023/05/16 05:25:37;;;;;;;;;;;;;;;-142.75;100.00;77765.34;5005782;28;20375;-66
2023/05/16 05:28:02;;;;;;;;;;;;;;;-142.75;100.00;77794.88;5005503;28;19918;-66
2023/05/16 05:30:28;;;;;;;;;;;;;;;-142.75;100.00;77765.34;5005486;28;19995;-66
2023/05/16 05:32:53;;;;;;;;;;;;;;;-142.75;100.00;77751.56;5006182;28;19932;-66
2023/05/16 05:35:19;;;;;;;;;;;;;;;-142.75;100.00;77739.75;5020218;28;19914;-66
2023/05/16 05:37:44;;;;;;;;;;;;;;;-142.75;100.00;77722.00;5005546;28;20540;-65
2023/05/16 05:40:09;;;;;;;;;;;;;;;-142.75;100.00;77725.97;5010636;28;19925;-65
2023/05/16 05:42:34;;;;;;;;;;;;;;;-142.75;100.00;77716.09;5003632;28;20317;-66
2023/05/16 05:45:00;;;;;;;;;;;;;;;-142.75;100.00;77725.97;5005525;28;19955;-66
2023/05/16 05:47:25;;;;;;;;;;;;;;;-142.75;100.00;77712.16;5004912;28;19913;-65
2023/05/16 05:49:50;;;;;;;;;;;;;;;-142.75;100.00;77698.38;5018177;28;19913;-66
2023/05/16 05:52:15;;;;;;;;;;;;;;;-142.75;100.00;77706.25;5005169;28;20295;-65
2023/05/16 05:54:41;;;;;;;;;;;;;;;-142.75;100.00;77698.38;5005255;28;19966;-66
2023/05/16 05:57:06;;;;;;;;;;;;;;;-142.75;100.00;77674.75;5001254;28;19956;-66
2023/05/16 05:59:31;;;;;;;;;;;;;;;-142.75;100.00;77672.78;5007307;28;20034;-66
2023/05/16 06:01:57;;;;;;;;;;;;;;;-142.75;100.00;77672.78;5004806;28;19917;-64
2023/05/16 06:04:22;;;;;;;;;;;;;;;-142.75;100.00;77655.06;5006193;28;20345;-66
2023/05/16 06:06:48;;;;;;;;;;;;;;;-142.75;100.00;77623.56;5018495;28;19918;-64
2023/05/16 06:09:13;;;;;;;;;;;;;;;-142.75;100.00;77590.09;5006805;28;19913;-65
2023/05/16 06:11:40;;;;;;;;;;;;;;;-142.75;100.00;77613.72;5004824;28;19920;-65
2023/05/16 06:14:05;;;;;;;;;;;;;;;-142.75;100.00;77617.66;5005434;28;19913;-66
2023/05/16 06:16:30;;;;;;;;;;;;;;;-142.75;100.00;77659.00;5017717;28;20379;-65
2023/05/16 06:18:55;;;;;;;;;;;;;;;-142.75;100.00;77692.47;5004848;28;19952;-64
2023/05/16 06:21:21;;;;;;;;;;;;;;;-142.75;100.00;77723.97;5006069;28;19919;-66
2023/05/16 06:23:46;;;;;;;;;;;;;;;-142.75;100.00;77729.88;5006436;28;20007;-66
2023/05/16 06:26:11;;;;;;;;;;;;;;;-142.75;100.00;77747.63;5008162;28;20031;-66
2023/05/16 06:28:36;;;;;;;;;;;;;;;-142.75;100.00;77747.63;5008285;28;19917;-66
2023/05/16 06:31:02;;;;;;;;;;;;;;;-142.75;100.00;77759.44;5008916;28;20412;-65
2023/05/16 06:33:27;;;;;;;;;;;;;;;-142.75;100.00;77723.97;5009641;28;19919;-65
2023/05/16 06:35:52;;;;;;;;;;;;;;;-142.75;100.00;77660.97;5020392;28;19929;-66
2023/05/16 06:38:20;;;;;;;;;;;;;;;-142.75;100.00;77629.47;5020427;28;19967;-66
2023/05/16 06:40:46;;;;;;;;;;;;;;;-142.75;100.00;77605.84;5002866;28;19921;-64
2023/05/16 06:43:11;;;;;;;;;;;;;;;-142.75;100.00;77570.41;5005070;28;19921;-64
2023/05/16 06:45:36;;;;;;;;;;;;;;;-142.75;100.00;77572.38;5005265;28;20386;-64
2023/05/16 06:48:02;;;;;;;;;;;;;;;-142.75;100.00;77550.72;5008076;28;20032;-64
2023/05/16 06:50:27;;;;;;;;;;;;;;;-142.75;100.00;77540.88;5007816;28;19921;-63
2023/05/16 06:52:52;;;;;;;;;;;;;;;-142.75;100.00;77534.97;5008177;28;20364;-64
2023/05/16 06:55:17;;;;;;;;;;;;;;;-142.75;100.00;77534.97;5007917;28;19920;-63
2023/05/16 06:57:43;;;;;;;;;;;;;;;-142.75;100.00;77529.06;5006237;28;19921;-64
2023/05/16 07:00:08;;;;;;;;;;;;;;;-142.75;100.00;77540.88;5008142;28;19913;-64
2023/05/16 07:02:33;;;;;;;;;;;;;;;-142.75;100.00;77564.50;5006188;28;20472;-64
2023/05/16 07:04:58;;;;;;;;;;;;;;;-142.75;99.75;77515.28;5008218;28;19913;-63
2023/05/16 07:07:24;;;;;;;;;;;;;;;-142.75;99.12;77505.44;5008077;28;19936;-63
2023/05/16 07:09:49;;;;;;;;;;;;;;;-142.75;96.59;77491.66;5008182;28;19913;-63
2023/05/16 07:12:14;;;;;;;;;;;;;;;-142.75;98.38;77473.94;5020871;28;20209;-64
2023/05/16 07:14:40;;;;;;;;;;;;;;;-142.75;96.46;77466.03;5007943;28;19955;-63
2023/05/16 07:17:05;;;;;;;;;;;;;;;-142.75;94.61;77479.84;5007569;28;20052;-63
2023/05/16 07:19:31;;;;;;;;;;;;;;;-142.75;94.32;77403.03;5007538;28;20393;-63
2023/05/16 07:21:56;;;;;;;;;;;;;;;-142.75;95.21;77395.16;5007353;28;19927;-62
2023/05/16 07:24:21;;;;;;;;;;;;;;;-142.75;93.22;77379.41;5007558;28;19909;-62
2023/05/16 07:26:47;;;;;;;;;;;;;;;-142.75;92.81;77365.63;5003578;28;23108;-64
2023/05/16 07:29:12;;;;;;;;;;;;;;;-142.75;91.84;77377.44;5018276;28;20481;-64
2023/05/16 07:31:37;;;;;;;;;;;;;;;-142.75;92.13;77363.66;5003905;28;19921;-63
2023/05/16 07:34:03;;;;;;;;;;;;;;;-142.75;90.85;77373.50;5018027;28;20445;-59
2023/05/16 07:36:28;;;;;;;;;;;;;;;-142.75;91.63;77312.47;5005235;28;20385;-57
2023/05/16 07:38:53;;;;;;;;;;;;;;;-142.75;91.88;77277.03;5005293;28;19924;-59
2023/05/16 07:41:19;;;;;;;;;;;;;;;-142.75;90.33;77263.25;5006194;28;19913;-59
2023/05/16 07:43:44;;;;;;;;;;;;;;;-142.75;85.46;77310.50;5007218;28;19913;-60
2023/05/16 07:46:10;;;;;;;;;;;;;;;-142.75;85.90;77363.66;5006591;28;19966;-62
2023/05/16 07:48:35;;;;;;;;;;;;;;;-142.75;86.69;77395.16;5003424;28;20287;-60
2023/05/16 07:51:00;;;;;;;;;;;;;;;-142.75;87.28;77343.97;5021201;28;20398;-58
2023/05/16 07:53:26;;;;;;;;;;;;;;;-142.75;85.99;77349.88;5005836;28;19920;-57
2023/05/16 07:55:51;;;;;;;;;;;;;;;-142.75;85.71;77298.69;5016913;28;19913;-57
2023/05/16 07:58:16;;;;;;;;;;;;;;;-142.75;85.69;77269.16;5006405;28;19924;-55
2023/05/16 08:00:41;;;;;;;;;;;;;;;-142.75;82.72;77241.59;5021173;28;20043;-62
2023/05/16 08:03:07;;;;;;;;;;;;;;;-142.75;82.60;77292.78;5017298;28;19913;-58
2023/05/16 08:05:32;;;;;;;;;;;;;;;-142.75;83.24;77294.75;5003928;28;19913;-58
2023/05/16 08:07:57;;;;;;;;;;;;;;;-142.75;83.75;77322.31;5006683;28;19914;-60
2023/05/16 08:10:22;;;;;;;;;;;;;;;-142.75;83.51;77308.53;5021516;28;20471;-58
2023/05/16 08:12:48;;;;;;;;;;;;;;;-142.75;83.60;77342.00;5020402;28;19913;-66
2023/05/16 08:15:13;;;;;;;;;;;;;;;-142.75;85.77;77328.22;5006430;28;20402;-65
2023/05/16 08:17:38;;;;;;;;;;;;;;;-142.75;85.02;77314.44;5006427;28;20408;-68
2023/05/16 08:20:04;;;;;;;;;;;;;;;-142.75;83.40;77290.81;5006155;28;20410;-66
2023/05/16 08:22:30;;;;;;;;;;;;;;;-142.75;82.70;77271.13;5006039;28;19920;-67
2023/05/16 08:24:56;;;;;;;;;;;;;;;-142.75;81.35;77255.38;5005225;28;19913;-65
2023/05/16 08:27:22;;;;;;;;;;;;;;;-142.75;83.51;77334.13;5006407;28;20376;-66
2023/05/16 08:29:47;;;;;;;;;;;;;;;-142.75;84.45;77351.84;5005912;28;19913;-66
2023/05/16 08:32:12;;;;;;;;;;;;;;;-142.75;83.27;77306.56;5005809;28;20118;-66
2023/05/16 08:34:38;;;;;;;;;;;;;;;-142.75;82.94;77318.38;5014245;28;20443;-66
2023/05/16 08:37:03;;;;;;;;;;;;;;;-142.75;84.01;77294.75;5005780;28;19933;-64
2023/05/16 08:39:29;;;;;;;;;;;;;;;-142.75;81.72;77277.03;5006056;28;19913;-64
2023/05/16 08:41:55;;;;;;;;;;;;;;;-142.75;81.34;77216.00;5005866;28;19913;-65
2023/05/16 08:44:20;;;;;;;;;;;;;;;-142.75;81.24;77184.50;5005701;28;19920;-66
2023/05/16 08:46:52;;;;;;;;;;;;;;;-142.75;80.17;77223.88;5005158;28;20008;-66
2023/05/16 08:49:17;;;;;;;;;;;;;;;-142.75;81.57;77239.63;5005421;28;19914;-66
2023/05/16 08:51:44;;;;;;;;;;;;;;;-142.75;81.26;77320.34;5003435;28;20703;-66
2023/05/16 08:54:12;;;;;;;;;;;;;;;-142.75;81.11;77288.84;5005308;28;19921;-66
2023/05/16 08:56:37;;;;;;;;;;;;;;;-142.75;80.73;77217.97;5003520;28;19924;-65
2023/05/16 08:59:03;;;;;;;;;;;;;;;-142.75;79.84;77192.38;5003796;28;19913;-66
2023/05/16 09:01:29;;;;;;;;;;;;;;;-142.75;80.09;77147.09;5005151;28;19921;-66
2023/05/16 09:03:55;;;;;;;;;;;;;;;-142.75;79.26;77206.16;5006355;28;19920;-66
2023/05/16 09:06:20;;;;;;;;;;;;;;;-142.75;80.47;77275.06;5005746;28;19925;-65
2023/05/16 09:08:45;;;;;;;;;;;;;;;-142.75;81.40;77279.00;5005911;28;19922;-65
2023/05/16 09:11:10;;;;;;;;;;;;;;;-142.75;81.21;77219.94;5004818;28;19920;-64
2023/05/16 09:13:38;;;;;;;;;;;;;;;-142.75;80.81;77196.31;4998453;28;19918;-66
2023/05/16 09:16:11;;;;;;;;;;;;;;;-142.75;80.06;77223.88;5005078;28;20291;-65
2023/05/16 09:18:36;;;;;;;;;;;;;;;-142.75;80.57;77265.22;5016380;28;19949;-65
2023/05/16 09:21:02;;;;;;;;;;;;;;;-142.75;81.80;77212.06;5003701;28;19913;-65
2023/05/16 09:23:28;;;;;;;;;;;;;;;-142.75;82.41;77131.34;5004914;28;19920;-65
2023/05/16 09:25:53;;;;;;;;;;;;;;;-142.75;80.75;77046.69;5005263;28;19917;-65
2023/05/16 09:28:18;;;;;;;;;;;;;;;-142.75;76.08;77030.94;5002386;28;19925;-65
2023/05/16 09:30:45;;;;;;;;;;;;;;;-142.75;75.06;77030.94;5010618;28;19957;-66
2023/05/16 09:33:10;;;;;;;;;;;;;;;-142.75;75.74;77090.00;5003550;28;19920;-66
2023/05/16 09:35:36;;;;;;;;;;;;;;;-142.75;76.18;77282.94;5003726;28;19914;-65
2023/05/16 09:38:01;;;;;;;;;;;;;;;-142.75;76.46;77194.34;5019386;28;19968;-65
2023/05/16 09:40:26;;;;;;;;;;;;;;;-142.75;76.52;77129.38;5005545;28;19913;-65
2023/05/16 09:43:05;;;;;;;;;;;;;;;-142.75;73.52;77070.31;5005506;28;19988;-65
2023/05/16 09:45:31;;;;;;;;;;;;;;;-142.75;74.97;77040.78;5005207;28;19921;-64
2023/05/16 09:48:11;;;;;;;;;;;;;;;-142.75;73.65;77141.19;5005295;28;19920;-65
2023/05/16 09:50:37;;;;;;;;;;;;;;;-142.75;73.00;77084.09;5005688;28;20370;-65
2023/05/16 09:53:02;;;;;;;;;;;;;;;-142.75;73.62;77099.84;5005337;28;19913;-65
2023/05/16 09:55:28;;;;;;;;;;;;;;;-142.75;74.26;77137.25;5005229;28;19913;-64
2023/05/16 09:57:54;;;;;;;;;;;;;;;-142.75;76.45;77168.75;5006727;28;19925;-65
2023/05/16 10:00:19;;;;;;;;;;;;;;;-142.75;74.50;77192.38;5007975;28;19914;-65
2023/05/16 10:02:45;;;;;;;;;;;;;;;-142.75;74.37;77145.13;5023861;28;20059;-66
2023/05/16 10:05:10;;;;;;;;;;;;;;;-142.75;75.03;77125.44;5009293;28;19921;-65
2023/05/16 10:07:37;;;;;;;;;;;;;;;-142.75;75.14;77078.19;5008673;28;20024;-64
2023/05/16 10:10:04;;;;;;;;;;;;;;;-142.75;73.18;77090.00;5009135;28;19920;-65
2023/05/16 10:12:31;;;;;;;;;;;;;;;-142.75;72.14;77151.03;5008181;28;19979;-65
2023/05/16 10:14:56;;;;;;;;;;;;;;;-142.75;71.75;77153.00;5008704;28;19913;-64
2023/05/16 10:17:22;;;;;;;;;;;;;;;-142.75;71.38;77090.00;5007448;28;19924;-65
2023/05/16 10:19:47;;;;;;;;;;;;;;;-142.75;71.43;77068.34;5008202;28;20621;-65
2023/05/16 10:22:13;;;;;;;;;;;;;;;-142.75;70.90;77050.63;5008716;28;19913;-66
2023/05/16 10:24:47;;;;;;;;;;;;;;;-142.75;74.10;76997.47;5008746;28;20020;-66
2023/05/16 10:27:14;;;;;;;;;;;;;;;-142.75;72.27;77021.09;5008593;28;19967;-66
2023/05/16 10:29:39;;;;;;;;;;;;;;;-142.75;70.03;76967.94;5007406;28;19917;-67
2023/05/16 10:32:05;;;;;;;;;;;;;;;-142.75;72.49;76920.69;5007991;28;19921;-68
2023/05/16 10:34:31;;;;;;;;;;;;;;;-142.75;69.17;76887.22;5009064;28;19959;-68
2023/05/16 10:36:56;;;;;;;;;;;;;;;-142.75;67.69;76855.72;5008205;28;19971;-67
2023/05/16 10:39:22;;;;;;;;;;;;;;;-142.75;67.99;76881.31;5008409;28;19914;-65
2023/05/16 10:41:48;;;;;;;;;;;;;;;-142.75;67.01;76873.44;5008597;28;19913;-64
2023/05/16 10:44:16;;;;;;;;;;;;;;;-142.75;67.42;76853.75;5006501;28;20369;-67
2023/05/16 10:46:42;;;;;;;;;;;;;;;-142.75;67.04;76897.06;5008047;28;19950;-68
2023/05/16 10:49:19;;;;;;;;;;;;;;;-142.75;69.51;76922.66;5008143;28;19952;-65
2023/05/16 10:51:44;;;;;;;;;;;;;;;-142.75;67.23;76916.75;5007900;28;20490;-66
2023/05/16 10:54:12;;;;;;;;;;;;;;;-142.75;66.00;76873.44;5007942;28;19920;-68
2023/05/16 10:56:38;;;;;;;;;;;;;;;-142.75;62.40;76906.91;5007625;28;19913;-65
2023/05/16 10:59:03;;;;;;;;;;;;;;;-142.75;64.35;76853.75;5022158;28;19964;-65
2023/05/16 11:01:30;;;;;;;;;;;;;;;-142.75;64.81;76843.91;5007854;28;19913;-68
2023/05/16 11:03:56;;;;;;;;;;;;;;;-142.75;64.41;76838.00;5008513;28;20438;-68
2023/05/16 11:06:24;;;;;;;;;;;;;;;-142.75;67.81;76845.88;5008250;28;20012;-67
2023/05/16 11:08:56;;;;;;;;;;;;;;;-142.75;66.12;76845.88;5009028;28;20365;-67
2023/05/16 11:11:37;;;;;;;;;;;;;;;-142.75;67.80;76889.19;5005929;28;19913;-67
2023/05/16 11:14:02;;;;;;;;;;;;;;;-142.75;66.94;76879.34;5007257;28;19967;-66
2023/05/16 11:16:28;;;;;;;;;;;;;;;-142.75;63.68;76843.91;5004269;28;19913;-66
2023/05/16 11:18:54;;;;;;;;;;;;;;;-142.75;61.86;76830.13;5008223;28;19917;-66
2023/05/16 11:21:19;;;;;;;;;;;;;;;-142.75;61.25;76798.66;5022847;28;19913;-66
2023/05/16 11:24:05;;;;;;;;;;;;;;;-142.75;65.24;76834.06;5008071;28;19920;-67
2023/05/16 11:26:30;;;;;;;;;;;;;;;-142.75;65.12;76804.53;5007651;28;19975;-67
2023/05/16 11:28:58;;;;;;;;;;;;;;;-142.75;68.00;76910.84;5008304;28;20020;-66
2023/05/16 11:31:23;;;;;;;;;;;;;;;-142.75;67.93;76967.94;5008439;28;19997;-68
2023/05/16 11:33:48;;;;;;;;;;;;;;;-142.75;66.59;76916.75;5008977;28;19913;-66
2023/05/16 11:36:14;;;;;;;;;;;;;;;-142.75;65.03;76932.50;5007724;28;19987;-66
2023/05/16 11:38:42;;;;;;;;;;;;;;;-142.75;64.42;76964.00;5007792;28;19934;-66
2023/05/16 11:41:07;;;;;;;;;;;;;;;-142.75;63.10;76934.47;5008033;28;19914;-67
2023/05/16 11:43:40;;;;;;;;;;;;;;;-142.75;69.46;76924.63;5007799;28;19979;-66
2023/05/16 11:46:06;;;;;;;;;;;;;;;-142.75;65.91;76936.44;5007302;28;20436;-66
2023/05/16 11:48:31;;;;;;;;;;;;;;;-142.75;64.82;76869.50;5007911;28;19976;-66
2023/05/16 11:50:57;;;;;;;;;;;;;;;-142.75;64.28;76873.44;5004605;28;20370;-66
2023/05/16 11:53:23;;;;;;;;;;;;;;;-142.75;62.50;76865.56;5007570;28;19913;-66
2023/05/16 11:55:51;;;;;;;;;;;;;;;-142.75;63.01;76855.72;5007621;28;19913;-66
2023/05/16 11:58:16;;;;;;;;;;;;;;;-142.75;63.45;76865.56;5007389;28;19917;-67
2023/05/16 12:00:48;;;;;;;;;;;;;;;-142.75;62.75;76834.06;5007711;28;19932;-66
2023/05/16 12:03:14;;;;;;;;;;;;;;;-142.75;62.87;76792.75;5007810;28;19963;-67
2023/05/16 12:05:48;;;;;;;;;;;;;;;-142.75;61.34;76773.06;5007601;28;19918;-69
2023/05/16 12:08:15;;;;;;;;;;;;;;;-142.75;59.72;76739.59;5019983;28;20657;-68
2023/05/16 12:10:41;;;;;;;;;;;;;;;-142.75;60.74;76745.50;5007494;28;19921;-66
2023/05/16 12:13:07;;;;;;;;;;;;;;;-142.75;58.86;76747.47;5007583;28;20290;-67
2023/05/16 12:15:32;;;;;;;;;;;;;;;-142.75;59.40;76867.53;5004730;28;19913;-66